Aviation Digital Data Service (ADDS)

Output produced by METARs form (1441 UTC 13 December 2018)
found at http://www.aviationweather.gov/metar/data/
 
METAR text: LFLU 131430Z AUTO 36006KT 9000 -RA SCT026 OVC041 02/M01 Q1009
Conditions at: LFLU (VALENCE-CHABEUIL, FR) observed 1430 UTC 13 December 2018
Temperature: 2.0°C (36°F)
Dewpoint: -1.0°C (30°F) [RH = 80%]
Pressure (altimeter): 29.79 inches Hg (1009.0 mb)
Winds: from the N (360 degrees) at 7 MPH (6 knots; 3.1 m/s)
Visibility: 6 miles ( 9 km)
Ceiling: 4100 feet AGL
Clouds: scattered clouds at 2600 feet AGL
overcast cloud deck at 4100 feet AGL
Weather: -RA  (light rain)